createdAt,value
2023-04-20T05:01:14.311Z,500.00
2023-04-20T05:02:14.405Z,500.00
2023-04-20T05:03:14.512Z,500.00
2023-04-20T05:04:14.534Z,500.00
2023-04-20T05:05:14.460Z,500.00
2023-04-20T05:06:14.454Z,500.00
2023-04-20T05:07:14.526Z,400.00
2023-04-20T05:08:14.553Z,400.00
2023-04-20T05:09:14.623Z,400.00
2023-04-20T05:10:15.206Z,400.00
2023-04-20T05:11:14.588Z,400.00
2023-04-20T05:12:14.585Z,400.00
2023-04-20T05:13:14.600Z,400.00
2023-04-20T05:14:14.648Z,400.00
2023-04-20T05:15:14.708Z,400.00
2023-04-20T05:16:14.804Z,400.00
2023-04-20T05:17:14.838Z,400.00
2023-04-20T05:18:14.851Z,400.00
2023-04-20T05:19:14.955Z,400.00
2023-04-20T05:20:14.980Z,400.00
2023-04-20T05:21:15.064Z,400.00
2023-04-20T05:22:15.090Z,400.00
2023-04-20T05:23:15.150Z,400.00
2023-04-20T05:24:15.171Z,400.00
2023-04-20T05:25:15.247Z,406.00
2023-04-20T05:26:15.266Z,447.00
2023-04-20T05:27:15.346Z,487.00
2023-04-20T05:28:15.447Z,502.00
2023-04-20T05:29:15.528Z,503.00
2023-04-20T05:30:21.559Z,500.00
2023-04-20T05:31:16.564Z,496.00
2023-04-20T05:32:15.476Z,485.00
2023-04-20T05:33:15.573Z,481.00
2023-04-20T05:34:15.469Z,464.00
2023-04-20T05:35:15.442Z,460.00
2023-04-20T05:36:15.459Z,496.00
2023-04-20T05:37:15.409Z,502.00
2023-04-20T05:38:15.448Z,496.00
2023-04-20T05:39:15.630Z,511.00
2023-04-20T05:40:15.449Z,503.00
2023-04-20T05:41:15.504Z,500.00
2023-04-20T05:42:15.516Z,502.00
2023-04-20T05:43:15.584Z,512.00
2023-04-20T05:44:15.601Z,500.00
2023-04-20T05:45:15.665Z,501.00
2023-04-20T05:46:15.735Z,506.00
2023-04-20T05:47:15.719Z,512.00
2023-04-20T05:48:15.772Z,502.00
2023-04-20T05:49:15.972Z,515.00
2023-04-20T05:50:15.804Z,522.00
2023-04-20T05:51:15.872Z,519.00
2023-04-20T05:52:15.893Z,520.00
2023-04-20T05:53:16.044Z,515.00
2023-04-20T05:54:15.960Z,534.00
2023-04-20T05:55:18.399Z,518.00
2023-04-20T05:56:15.994Z,515.00
2023-04-20T05:57:15.998Z,512.00
2023-04-20T05:58:15.956Z,512.00
2023-04-20T05:59:16.252Z,516.00
2023-04-20T06:00:15.971Z,516.00
2023-04-20T06:01:15.941Z,518.00
2023-04-20T06:02:16.013Z,528.00
2023-04-20T06:03:16.167Z,528.00
2023-04-20T06:04:16.292Z,527.00
2023-04-20T06:05:15.970Z,550.00
2023-04-20T06:06:16.806Z,521.00
2023-04-20T06:07:15.924Z,494.00
2023-04-20T06:08:15.899Z,515.00
2023-04-20T06:09:16.027Z,530.00
2023-04-20T06:10:15.887Z,497.00
2023-04-20T06:11:15.870Z,534.00
2023-04-20T06:12:15.885Z,498.00
2023-04-20T06:13:15.864Z,512.00
2023-04-20T06:14:15.830Z,517.00
2023-04-20T06:15:15.835Z,529.00
2023-04-20T06:16:15.857Z,524.00
2023-04-20T06:17:16.746Z,546.00
2023-04-20T06:18:15.809Z,512.00
2023-04-20T06:19:16.082Z,505.00
2023-04-20T06:20:15.821Z,517.00
2023-04-20T06:21:15.792Z,500.00
2023-04-20T06:22:15.809Z,508.00
2023-04-20T06:23:15.767Z,506.00
2023-04-20T06:24:15.758Z,508.00
2023-04-20T06:25:15.992Z,517.00
2023-04-20T06:26:15.787Z,524.00
2023-04-20T06:27:15.802Z,516.00
2023-04-20T06:28:15.758Z,571.00
2023-04-20T06:29:15.992Z,592.00
2023-04-20T06:30:15.738Z,608.00
2023-04-20T06:31:15.781Z,633.00
2023-04-20T06:32:15.708Z,628.00
2023-04-20T06:33:15.703Z,620.00
2023-04-20T06:34:15.690Z,646.00
2023-04-20T06:35:15.690Z,652.00
2023-04-20T06:36:15.686Z,656.00
2023-04-20T06:37:15.837Z,643.00
2023-04-20T06:38:15.690Z,691.00
2023-04-20T06:39:16.022Z,731.00
2023-04-20T06:40:16.354Z,680.00
2023-04-20T06:41:15.668Z,689.00
2023-04-20T06:42:15.613Z,747.00
2023-04-20T06:43:15.667Z,698.00
2023-04-20T06:44:15.620Z,728.00
2023-04-20T06:45:15.649Z,741.00
2023-04-20T06:46:15.642Z,781.00
2023-04-20T06:47:15.706Z,755.00
2023-04-20T06:48:30.793Z,824.00
2023-04-20T06:49:16.823Z,822.00
2023-04-20T06:50:15.602Z,830.00
2023-04-20T06:51:15.597Z,829.00
2023-04-20T06:52:15.624Z,822.00
2023-04-20T06:53:15.562Z,816.00
2023-04-20T06:54:15.563Z,830.00
2023-04-20T06:55:15.570Z,896.00
2023-04-20T06:56:15.556Z,930.00
2023-04-20T06:57:15.516Z,900.00
2023-04-20T06:58:15.519Z,730.00
2023-04-20T06:59:15.727Z,684.00
2023-04-20T07:00:15.641Z,705.00
2023-04-20T07:01:15.675Z,737.00
2023-04-20T07:02:15.844Z,740.00
2023-04-20T07:03:15.961Z,788.00
2023-04-20T07:04:15.958Z,811.00
2023-04-20T07:05:15.953Z,836.00
2023-04-20T07:06:16.763Z,847.00
2023-04-20T07:07:17.771Z,859.00
2023-04-20T07:08:16.302Z,824.00
2023-04-20T07:09:16.271Z,905.00
2023-04-20T07:10:16.297Z,950.00
2023-04-20T07:11:16.288Z,914.00
2023-04-20T07:12:16.344Z,873.00
2023-04-20T07:13:16.386Z,856.00
2023-04-20T07:14:16.423Z,880.00
2023-04-20T07:15:16.472Z,896.00
2023-04-20T07:16:16.642Z,902.00
2023-04-20T07:17:16.622Z,952.00
2023-04-20T07:18:16.666Z,955.00
2023-04-20T07:19:16.810Z,1050.00
2023-04-20T07:20:16.782Z,1150.00
2023-04-20T07:21:16.808Z,1175.00
2023-04-20T07:22:16.807Z,1126.00
2023-04-20T07:23:16.878Z,1150.00
2023-04-20T07:24:16.883Z,1188.00
2023-04-20T07:25:16.922Z,1186.00
2023-04-20T07:26:16.978Z,1108.00
2023-04-20T07:27:16.959Z,1153.00
2023-04-20T07:28:16.965Z,1233.00
2023-04-20T07:29:17.265Z,1262.00
2023-04-20T07:30:17.029Z,1250.00
2023-04-20T07:31:17.093Z,1243.00
2023-04-20T07:32:17.170Z,1251.00
2023-04-20T07:33:17.081Z,1323.00
2023-04-20T07:34:17.269Z,1372.00
2023-04-20T07:35:17.080Z,1390.00
2023-04-20T07:36:17.110Z,1333.00
2023-04-20T07:37:17.088Z,1309.00
2023-04-20T07:38:17.115Z,1246.00
2023-04-20T07:39:17.382Z,1269.00
2023-04-20T07:40:17.081Z,1292.00
2023-04-20T07:41:17.211Z,1312.00
2023-04-20T07:42:17.103Z,1346.00
2023-04-20T07:43:17.055Z,1326.00
2023-04-20T07:44:17.068Z,1370.00
2023-04-20T07:45:17.061Z,1407.00
2023-04-20T07:46:17.235Z,1522.00
2023-04-20T07:47:17.107Z,1541.00
2023-04-20T07:48:17.104Z,1542.00
2023-04-20T07:49:17.401Z,1533.00
2023-04-20T07:50:17.156Z,1481.00
2023-04-20T07:51:17.187Z,1511.00
2023-04-20T07:52:17.617Z,1519.00
2023-04-20T07:53:17.256Z,1507.00
2023-04-20T07:54:17.318Z,1549.00
2023-04-20T07:55:17.337Z,1614.00
2023-04-20T07:56:17.353Z,1522.00
2023-04-20T07:57:17.402Z,1569.00
2023-04-20T07:58:17.430Z,1595.00
2023-04-20T07:59:17.577Z,1477.00
2023-04-20T08:00:17.505Z,1523.00
2023-04-20T08:01:17.532Z,1469.00
2023-04-20T08:02:17.676Z,1463.00
2023-04-20T08:03:17.773Z,1528.00
2023-04-20T08:04:17.887Z,1588.00
2023-04-20T08:05:17.869Z,1589.00
2023-04-20T08:06:17.809Z,1608.00
2023-04-20T08:07:17.990Z,1631.00
2023-04-20T08:08:17.950Z,1607.00
2023-04-20T08:09:18.097Z,1613.00
2023-04-20T08:10:17.999Z,1612.00
2023-04-20T08:11:18.096Z,1628.00
2023-04-20T08:12:18.130Z,1585.00
2023-04-20T08:13:18.226Z,1327.00
2023-04-20T08:14:18.394Z,1162.00
2023-04-20T08:15:18.208Z,1078.00
2023-04-20T08:16:18.312Z,1028.00
2023-04-20T08:17:18.212Z,989.00
2023-04-20T08:18:19.523Z,1081.00
2023-04-20T08:19:18.374Z,1038.00
2023-04-20T08:20:18.205Z,1047.00
2023-04-20T08:21:18.233Z,997.00
2023-04-20T08:22:18.213Z,992.00
2023-04-20T08:23:18.240Z,990.00
2023-04-20T08:24:18.484Z,960.00
2023-04-20T08:25:18.194Z,1004.00
2023-04-20T08:26:18.147Z,971.00
2023-04-20T08:27:18.197Z,940.00
2023-04-20T08:28:32.460Z,911.00
2023-04-20T08:29:19.365Z,915.00
2023-04-20T08:30:18.134Z,946.00
2023-04-20T08:31:18.179Z,991.00
2023-04-20T08:32:18.167Z,1204.00
2023-04-20T08:33:18.138Z,1391.00
2023-04-20T08:34:18.106Z,1391.00
2023-04-20T08:35:18.133Z,1356.00
2023-04-20T08:36:18.119Z,1280.00
2023-04-20T08:37:18.128Z,1246.00
2023-04-20T08:38:20.820Z,1227.00
2023-04-20T08:39:19.062Z,1208.00
2023-04-20T08:40:18.062Z,1213.00
2023-04-20T08:41:18.074Z,1224.00
2023-04-20T08:42:18.049Z,1206.00
2023-04-20T08:43:18.068Z,1254.00
2023-04-20T08:44:18.303Z,1306.00
2023-04-20T08:45:18.051Z,1307.00
2023-04-20T08:46:18.024Z,1311.00
2023-04-20T08:47:18.069Z,1310.00
2023-04-20T08:48:18.029Z,1356.00
2023-04-20T08:49:18.011Z,1369.00
2023-04-20T08:50:17.995Z,1374.00
2023-04-20T08:51:17.991Z,1382.00
2023-04-20T08:52:17.971Z,1375.00
2023-04-20T08:53:17.980Z,1339.00
2023-04-20T08:54:18.320Z,1327.00
2023-04-20T08:55:17.953Z,1314.00
2023-04-20T08:56:17.963Z,1366.00
2023-04-20T08:57:17.939Z,1368.00
2023-04-20T08:58:17.961Z,1378.00
2023-04-20T08:59:17.957Z,1355.00
2023-04-20T09:00:17.907Z,1379.00
2023-04-20T09:01:22.656Z,1391.00
2023-04-20T09:02:19.016Z,1392.00
2023-04-20T09:03:18.228Z,1394.00
2023-04-20T09:04:18.681Z,1406.00
2023-04-20T09:05:17.950Z,1413.00
2023-04-20T09:06:17.876Z,1435.00
2023-04-20T09:07:17.888Z,1443.00
2023-04-20T09:08:17.901Z,1457.00
2023-04-20T09:09:17.862Z,1451.00
2023-04-20T09:10:17.893Z,1454.00
2023-04-20T09:11:17.851Z,1446.00
2023-04-20T09:12:17.845Z,1461.00
2023-04-20T09:13:17.902Z,1469.00
2023-04-20T09:14:18.505Z,1477.00
2023-04-20T09:15:17.995Z,1465.00
2023-04-20T09:16:18.026Z,1477.00
2023-04-20T09:17:18.340Z,1491.00
2023-04-20T09:18:18.067Z,1488.00
2023-04-20T09:19:18.105Z,1482.00
2023-04-20T09:20:18.116Z,1488.00
2023-04-20T09:21:18.120Z,1485.00
2023-04-20T09:22:18.192Z,1482.00
2023-04-20T09:23:18.163Z,1486.00
2023-04-20T09:24:18.280Z,1485.00
2023-04-20T09:25:18.200Z,1482.00
2023-04-20T09:26:18.189Z,1504.00
2023-04-20T09:27:18.259Z,1499.00
2023-04-20T09:28:18.216Z,1514.00
2023-04-20T09:29:18.210Z,1512.00
2023-04-20T09:30:18.223Z,1488.00
2023-04-20T09:31:18.290Z,1506.00
2023-04-20T09:32:18.251Z,1536.00
2023-04-20T09:33:18.220Z,1540.00
2023-04-20T09:34:18.408Z,1519.00
2023-04-20T09:35:18.259Z,1550.00
2023-04-20T09:36:18.247Z,1528.00
2023-04-20T09:37:18.221Z,1597.00
2023-04-20T09:38:18.262Z,1601.00
2023-04-20T09:39:18.247Z,1602.00
2023-04-20T09:40:18.244Z,1612.00
2023-04-20T09:41:18.224Z,1590.00
2023-04-20T09:42:18.263Z,1567.00
2023-04-20T09:43:18.215Z,1192.00
2023-04-20T09:44:18.500Z,628.00
2023-04-20T09:45:18.310Z,649.00
2023-04-20T09:46:18.391Z,592.00
2023-04-20T09:47:18.353Z,595.00
2023-04-20T09:48:18.360Z,504.00
2023-04-20T09:49:18.449Z,500.00
2023-04-20T09:50:26.719Z,502.00
2023-04-20T09:51:19.477Z,501.00
2023-04-20T09:52:18.519Z,472.00
2023-04-20T09:53:18.528Z,429.00
2023-04-20T09:54:18.579Z,420.00
2023-04-20T09:55:18.450Z,400.00
2023-04-20T09:56:18.464Z,451.00
2023-04-20T09:57:18.406Z,535.00
2023-04-20T09:58:18.403Z,500.00
2023-04-20T09:59:18.452Z,563.00
2023-04-20T10:00:18.418Z,545.00
2023-04-20T10:01:18.459Z,559.00
2023-04-20T10:02:18.485Z,547.00
2023-04-20T10:03:18.526Z,534.00
2023-04-20T10:04:18.664Z,507.00
2023-04-20T10:05:18.599Z,512.00
2023-04-20T10:06:18.450Z,538.00
2023-04-20T10:07:18.524Z,508.00
2023-04-20T10:08:18.572Z,509.00
2023-04-20T10:09:18.577Z,556.00
2023-04-20T10:10:18.651Z,526.00
2023-04-20T10:11:18.628Z,562.00
2023-04-20T10:12:18.691Z,548.00
2023-04-20T10:13:18.649Z,514.00
2023-04-20T10:14:18.895Z,515.00
2023-04-20T10:15:18.723Z,502.00
2023-04-20T10:16:18.728Z,492.00
2023-04-20T10:17:18.743Z,500.00
2023-04-20T10:18:18.799Z,500.00
2023-04-20T10:19:18.670Z,503.00
2023-04-20T10:20:18.683Z,512.00
2023-04-20T10:21:18.711Z,510.00
2023-04-20T10:22:18.694Z,500.00
2023-04-20T10:23:18.844Z,523.00
2023-04-20T10:24:20.411Z,515.00
2023-04-20T10:25:18.784Z,549.00
2023-04-20T10:26:18.828Z,530.00
2023-04-20T10:27:18.830Z,570.00
2023-04-20T10:28:18.863Z,637.00
2023-04-20T10:29:18.846Z,751.00
2023-04-20T10:30:18.890Z,884.00
2023-04-20T10:31:18.963Z,941.00
2023-04-20T10:32:18.956Z,1130.00
2023-04-20T10:33:19.023Z,1193.00
2023-04-20T10:34:19.110Z,1212.00
2023-04-20T10:35:19.032Z,1201.00
2023-04-20T10:36:19.052Z,1252.00
2023-04-20T10:37:19.165Z,1316.00
2023-04-20T10:38:19.074Z,1296.00
2023-04-20T10:39:19.754Z,1352.00
2023-04-20T10:40:19.117Z,1431.00
2023-04-20T10:41:19.220Z,1608.00
2023-04-20T10:42:19.249Z,1603.00
2023-04-20T10:43:19.275Z,1566.00
2023-04-20T10:44:19.511Z,1563.00
2023-04-20T10:45:19.357Z,1589.00
2023-04-20T10:46:19.462Z,1659.00
2023-04-20T10:47:19.434Z,1679.00
2023-04-20T10:48:19.419Z,1682.00
2023-04-20T10:49:19.561Z,1713.00
2023-04-20T10:50:19.433Z,1721.00
2023-04-20T10:51:19.431Z,1753.00
2023-04-20T10:52:19.405Z,1749.00
2023-04-20T10:53:19.464Z,1729.00
2023-04-20T10:54:19.497Z,1270.00
2023-04-20T10:55:19.429Z,1082.00
2023-04-20T10:56:19.474Z,966.00
2023-04-20T10:57:19.611Z,896.00
2023-04-20T10:58:19.558Z,716.00
2023-04-20T10:59:19.829Z,632.00
2023-04-20T11:00:19.571Z,641.00
2023-04-20T11:01:19.634Z,701.00
2023-04-20T11:02:19.785Z,646.00
2023-04-20T11:03:19.866Z,588.00
2023-04-20T11:04:19.693Z,565.00
2023-04-20T11:05:19.961Z,535.00
2023-04-20T11:06:19.761Z,500.00
2023-04-20T11:07:19.784Z,621.00
2023-04-20T11:08:19.812Z,734.00
2023-04-20T11:09:20.024Z,868.00
2023-04-20T11:10:19.870Z,920.00
2023-04-20T11:11:19.893Z,1034.00
2023-04-20T11:12:19.927Z,1047.00
2023-04-20T11:13:19.923Z,1124.00
2023-04-20T11:14:19.956Z,1149.00
2023-04-20T11:15:19.981Z,1144.00
2023-04-20T11:16:20.061Z,1205.00
2023-04-20T11:17:20.009Z,1231.00
2023-04-20T11:18:20.012Z,1250.00
2023-04-20T11:19:20.087Z,1269.00
2023-04-20T11:20:20.126Z,1253.00
2023-04-20T11:21:20.187Z,1258.00
2023-04-20T11:22:20.241Z,1267.00
2023-04-20T11:23:20.266Z,1311.00
2023-04-20T11:24:20.323Z,1405.00
2023-04-20T11:25:20.444Z,1501.00
2023-04-20T11:26:20.391Z,1502.00
2023-04-20T11:27:20.420Z,1505.00
2023-04-20T11:28:20.503Z,1545.00
2023-04-20T11:29:20.608Z,1547.00
2023-04-20T11:30:20.483Z,1546.00
2023-04-20T11:31:20.506Z,1538.00
2023-04-20T11:32:20.642Z,1585.00
2023-04-20T11:33:20.561Z,1555.00
2023-04-20T11:34:20.516Z,1564.00
2023-04-20T11:35:20.518Z,1569.00
2023-04-20T11:36:20.527Z,1569.00
2023-04-20T11:37:20.537Z,1600.00
2023-04-20T11:38:20.548Z,1730.00
2023-04-20T11:39:20.563Z,1146.00
2023-04-20T11:40:20.666Z,703.00
2023-04-20T11:41:20.724Z,626.00
2023-04-20T11:42:20.650Z,546.00
2023-04-20T11:43:20.698Z,538.00
2023-04-20T11:44:20.705Z,530.00
2023-04-20T11:45:20.733Z,504.00
2023-04-20T11:46:20.857Z,531.00
2023-04-20T11:47:20.833Z,500.00
2023-04-20T11:48:20.806Z,510.00
2023-04-20T11:49:20.873Z,524.00
2023-04-20T11:50:20.934Z,511.00
2023-04-20T11:51:20.910Z,505.00
2023-04-20T11:52:20.909Z,513.00
2023-04-20T11:53:20.960Z,543.00
2023-04-20T11:54:20.940Z,512.00
2023-04-20T11:55:20.972Z,494.00
2023-04-20T11:56:20.997Z,517.00
2023-04-20T11:57:21.084Z,520.00
2023-04-20T11:58:21.138Z,512.00
2023-04-20T11:59:21.650Z,527.00
2023-04-20T12:00:21.266Z,531.00
2023-04-20T12:01:21.347Z,554.00
